»·PEaware :: N713AG 33V-KRIW

N713AG :: 33V-KRIW

FLIGHT INFORMATION

Flight Status: Arrived
Operator: Privately registered:
United States
More flights under this callsign
Pilot: Charles S. (11412)
Aircraft: SOCATA TBM-900
(TBM9)
More flights by this aircraft type
Origin: 33V Walden-Jackson Co
United States
Destination: KRIW Riverton Regl
United States
More flights between these airports :: More routes between these airports
Route: WALRU1 WALRU SAA HUNTZ
File this flight plan on PilotEdge
Remarks:
Altitude:
(Current/Filed)
22,000ft
Speed:
(Current/Filed)
245kts
Departed: 27-Oct-18 09:31 AM
Arrived: 27-Oct-18 10:30 AM
Distance/Time
Traveled:
170nm/0:59
Distance/Time
To Go:
Arrived

Flight Plot

Page will automatically refresh every two minutes.

Flight plan parsing failed; only flown route is shown


Map Options




Map Legend


Flown Route
Filed Route
Departure Airport
Arrival Airport
Navaid (VOR, NDB)
Fix

Horizontal Profiles

Position Reports

Time Latitude Longitude Heading Altitude Ground
Speed
27-Oct-18 09:22 40.744682 -106.273619 270 8149ft 0kts
27-Oct-18 09:23 40.744682 -106.273619 270 8149ft 0kts
27-Oct-18 09:24 40.744682 -106.273619 270 8149ft 0kts
27-Oct-18 09:25 40.744682 -106.273619 270 8149ft 0kts
27-Oct-18 09:26 40.744682 -106.273619 270 8149ft 0kts
27-Oct-18 09:27 40.744682 -106.273619 270 8149ft 0kts
27-Oct-18 09:28 40.744682 -106.273676 272 8149ft 3kts
27-Oct-18 09:29 40.747588 -106.275040 45 8142ft 23kts
27-Oct-18 09:30 40.754699 -106.265421 51 8146ft 34kts
27-Oct-18 09:31 40.755578 -106.264241 224 8145ft 0kts
27-Oct-18 09:32 40.755578 -106.264242 222 8145ft 0kts
27-Oct-18 09:33 40.744507 -106.278752 232 8458ft 135kts
27-Oct-18 09:34 40.731123 -106.320867 307 10109ft 165kts
27-Oct-18 09:35 40.761911 -106.362679 312 11943ft 175kts
27-Oct-18 09:36 40.793840 -106.403624 311 13666ft 183kts
27-Oct-18 09:37 40.818829 -106.435674 311 14936ft 182kts
27-Oct-18 09:38 40.847075 -106.457976 356 16099ft 199kts
27-Oct-18 09:39 40.873291 -106.473337 320 17153ft 177kts
27-Oct-18 09:40 40.903770 -106.499641 319 18483ft 170kts
27-Oct-18 09:41 40.934232 -106.526200 319 19594ft 177kts
27-Oct-18 09:42 40.963346 -106.551572 320 20433ft 186kts
27-Oct-18 09:43 40.998491 -106.582227 319 21394ft 188kts
27-Oct-18 09:44 41.037087 -106.615957 319 22298ft 189kts
27-Oct-18 09:45 41.075878 -106.649928 319 22282ft 212kts
27-Oct-18 09:46 41.119430 -106.688127 319 22271ft 219kts
27-Oct-18 09:47 41.163971 -106.727282 319 22265ft 228kts
27-Oct-18 09:48 41.206846 -106.764985 319 22262ft 232kts
27-Oct-18 09:49 41.255129 -106.807504 319 22260ft 233kts
27-Oct-18 09:50 41.301184 -106.848152 319 22259ft 235kts
27-Oct-18 09:51 41.346769 -106.888465 318 22259ft 236kts
27-Oct-18 09:52 41.391148 -106.927775 318 22257ft 238kts
27-Oct-18 09:53 41.439820 -106.970975 318 22257ft 239kts
27-Oct-18 09:54 41.488327 -107.014085 318 22248ft 241kts
27-Oct-18 09:55 41.541080 -107.061088 318 22233ft 244kts
27-Oct-18 09:56 41.592697 -107.107140 318 22220ft 244kts
27-Oct-18 09:57 41.641940 -107.151173 318 22218ft 247kts
27-Oct-18 09:58 41.691584 -107.195644 318 22216ft 247kts
27-Oct-18 09:59 41.742260 -107.241119 318 22215ft 248kts
27-Oct-18 10:00 41.792257 -107.286089 318 22215ft 248kts
27-Oct-18 10:01 41.842081 -107.330975 318 22214ft 247kts
27-Oct-18 10:02 41.892449 -107.376456 318 22213ft 247kts
27-Oct-18 10:03 41.942354 -107.421588 318 22212ft 247kts
27-Oct-18 10:04 41.993423 -107.467859 318 22214ft 250kts
27-Oct-18 10:05 42.044009 -107.513775 317 22212ft 250kts
27-Oct-18 10:06 42.093944 -107.559211 317 22212ft 251kts
27-Oct-18 10:07 42.144570 -107.605354 318 22214ft 251kts
27-Oct-18 10:08 42.195451 -107.651810 317 22214ft 251kts
27-Oct-18 10:09 42.246614 -107.698678 317 21881ft 262kts
27-Oct-18 10:10 42.301081 -107.748603 317 20920ft 261kts
27-Oct-18 10:11 42.353846 -107.797084 317 19972ft 262kts
27-Oct-18 10:12 42.408780 -107.847666 318 18987ft 264kts
27-Oct-18 10:13 42.459338 -107.894342 318 18082ft 265kts
27-Oct-18 10:14 42.501580 -107.933318 318 17192ft 256kts
27-Oct-18 10:15 42.538494 -107.967488 318 15977ft 238kts
27-Oct-18 10:16 42.582213 -108.008082 318 14481ft 229kts
27-Oct-18 10:17 42.615248 -108.038793 318 13339ft 228kts
27-Oct-18 10:18 42.649246 -108.070424 318 12163ft 227kts
27-Oct-18 10:19 42.682832 -108.101728 320 11003ft 227kts
27-Oct-18 10:20 42.721438 -108.137728 321 9997ft 225kts
27-Oct-18 10:21 42.757653 -108.171502 321 10001ft 232kts
27-Oct-18 10:22 42.792212 -108.203829 321 9999ft 235kts
27-Oct-18 10:23 42.826648 -108.236055 321 9998ft 235kts
27-Oct-18 10:24 42.860113 -108.267446 321 9997ft 235kts
27-Oct-18 10:25 42.901254 -108.298961 333 9446ft 249kts
27-Oct-18 10:26 42.952915 -108.324283 342 8236ft 198kts
27-Oct-18 10:27 42.991780 -108.335157 346 7530ft 109kts
27-Oct-18 10:28 43.020657 -108.345555 334 6831ft 106kts
27-Oct-18 10:29 43.035788 -108.372992 296 6610ft 114kts
27-Oct-18 10:30 43.047716 -108.407317 299 6012ft 99kts
27-Oct-18 10:31 43.058563 -108.439600 297 5551ft 96kts
27-Oct-18 10:32 43.064933 -108.459582 206 5470ft 29kts
27-Oct-18 10:33 43.061631 -108.455253 190 5453ft 8kts
27-Oct-18 10:34 43.061430 -108.455575 1 5454ft 5kts
27-Oct-18 10:35 43.062117 -108.455599 340 5455ft 0kts
27-Oct-18 10:36 43.062117 -108.455599 340 5455ft 0kts
27-Oct-18 10:37 43.062117 -108.455599 340 5455ft 0kts
27-Oct-18 10:38 43.062117 -108.455598 340 5455ft 0kts

Navigation Log

Ident Type
Flight plan parsing failed, navigation log unavailable